sensor_id;sensor_type;location;lat;lon;timestamp;P1;durP1;ratioP1;P2;durP2;ratioP2
18364;SDS011;9309;52.126;11.616;2023-07-02T00:01:51;2.17;;;2.07;;
18364;SDS011;9309;52.126;11.616;2023-07-02T00:04:18;2.80;;;2.60;;
18364;SDS011;9309;52.126;11.616;2023-07-02T00:06:45;1.87;;;1.87;;
18364;SDS011;9309;52.126;11.616;2023-07-02T00:09:13;2.30;;;2.20;;
18364;SDS011;9309;52.126;11.616;2023-07-02T00:11:41;1.93;;;1.83;;
18364;SDS011;9309;52.126;11.616;2023-07-02T00:14:11;2.50;;;2.30;;
18364;SDS011;9309;52.126;11.616;2023-07-02T00:16:39;1.83;;;1.83;;
18364;SDS011;9309;52.126;11.616;2023-07-02T00:19:11;2.00;;;2.00;;
18364;SDS011;9309;52.126;11.616;2023-07-02T00:21:40;1.80;;;1.80;;
18364;SDS011;9309;52.126;11.616;2023-07-02T00:24:08;2.50;;;2.40;;
18364;SDS011;9309;52.126;11.616;2023-07-02T00:26:36;2.20;;;2.20;;
18364;SDS011;9309;52.126;11.616;2023-07-02T00:29:05;1.97;;;1.90;;
18364;SDS011;9309;52.126;11.616;2023-07-02T00:31:33;2.07;;;2.00;;
18364;SDS011;9309;52.126;11.616;2023-07-02T00:34:01;3.10;;;2.37;;
18364;SDS011;9309;52.126;11.616;2023-07-02T00:36:30;2.20;;;2.10;;
18364;SDS011;9309;52.126;11.616;2023-07-02T00:38:57;2.10;;;2.00;;
18364;SDS011;9309;52.126;11.616;2023-07-02T00:41:25;2.20;;;2.10;;
18364;SDS011;9309;52.126;11.616;2023-07-02T00:43:52;2.50;;;2.07;;
18364;SDS011;9309;52.126;11.616;2023-07-02T00:46:20;2.13;;;2.00;;
18364;SDS011;9309;52.126;11.616;2023-07-02T00:48:51;2.10;;;2.00;;
18364;SDS011;9309;52.126;11.616;2023-07-02T00:51:20;4.43;;;2.53;;
18364;SDS011;9309;52.126;11.616;2023-07-02T00:53:49;3.37;;;2.13;;
18364;SDS011;9309;52.126;11.616;2023-07-02T00:56:18;2.50;;;2.40;;
18364;SDS011;9309;52.126;11.616;2023-07-02T00:58:46;2.60;;;2.40;;
18364;SDS011;9309;52.126;11.616;2023-07-02T01:01:16;2.13;;;2.03;;
18364;SDS011;9309;52.126;11.616;2023-07-02T01:03:50;2.97;;;2.10;;
18364;SDS011;9309;52.126;11.616;2023-07-02T01:06:24;2.37;;;2.37;;
18364;SDS011;9309;52.126;11.616;2023-07-02T01:08:54;2.33;;;2.23;;
18364;SDS011;9309;52.126;11.616;2023-07-02T01:11:23;4.83;;;2.27;;
18364;SDS011;9309;52.126;11.616;2023-07-02T01:13:53;2.37;;;2.30;;
18364;SDS011;9309;52.126;11.616;2023-07-02T01:16:23;2.50;;;2.40;;
18364;SDS011;9309;52.126;11.616;2023-07-02T01:18:50;2.40;;;2.30;;
18364;SDS011;9309;52.126;11.616;2023-07-02T01:21:20;2.57;;;2.47;;
18364;SDS011;9309;52.126;11.616;2023-07-02T01:23:48;2.80;;;2.70;;
18364;SDS011;9309;52.126;11.616;2023-07-02T01:26:15;2.60;;;2.50;;
18364;SDS011;9309;52.126;11.616;2023-07-02T01:28:42;2.30;;;2.20;;
18364;SDS011;9309;52.126;11.616;2023-07-02T01:31:09;2.83;;;2.57;;
18364;SDS011;9309;52.126;11.616;2023-07-02T01:33:36;2.97;;;2.73;;
18364;SDS011;9309;52.126;11.616;2023-07-02T01:36:03;2.63;;;2.53;;
18364;SDS011;9309;52.126;11.616;2023-07-02T01:38:32;2.70;;;2.60;;
18364;SDS011;9309;52.126;11.616;2023-07-02T01:40:58;2.97;;;2.77;;
18364;SDS011;9309;52.126;11.616;2023-07-02T01:43:25;5.90;;;2.80;;
18364;SDS011;9309;52.126;11.616;2023-07-02T01:45:52;2.43;;;2.33;;
18364;SDS011;9309;52.126;11.616;2023-07-02T01:48:20;2.50;;;2.40;;
18364;SDS011;9309;52.126;11.616;2023-07-02T01:50:47;2.20;;;2.10;;
18364;SDS011;9309;52.126;11.616;2023-07-02T01:53:14;2.80;;;2.70;;
18364;SDS011;9309;52.126;11.616;2023-07-02T01:55:42;2.63;;;2.40;;
18364;SDS011;9309;52.126;11.616;2023-07-02T01:58:09;2.37;;;2.27;;
18364;SDS011;9309;52.126;11.616;2023-07-02T02:00:35;2.27;;;2.20;;
18364;SDS011;9309;52.126;11.616;2023-07-02T02:03:02;2.80;;;2.60;;
18364;SDS011;9309;52.126;11.616;2023-07-02T02:05:30;7.50;;;2.83;;
18364;SDS011;9309;52.126;11.616;2023-07-02T02:07:57;3.73;;;3.20;;
18364;SDS011;9309;52.126;11.616;2023-07-02T02:10:24;2.60;;;2.50;;
18364;SDS011;9309;52.126;11.616;2023-07-02T02:12:52;2.40;;;2.30;;
18364;SDS011;9309;52.126;11.616;2023-07-02T02:15:19;2.90;;;2.70;;
18364;SDS011;9309;52.126;11.616;2023-07-02T02:17:45;2.43;;;2.20;;
18364;SDS011;9309;52.126;11.616;2023-07-02T02:20:12;2.27;;;2.17;;
18364;SDS011;9309;52.126;11.616;2023-07-02T02:22:39;2.60;;;2.40;;
18364;SDS011;9309;52.126;11.616;2023-07-02T02:25:06;2.23;;;2.13;;
18364;SDS011;9309;52.126;11.616;2023-07-02T02:27:33;2.73;;;2.63;;
18364;SDS011;9309;52.126;11.616;2023-07-02T02:30:02;2.23;;;2.13;;
18364;SDS011;9309;52.126;11.616;2023-07-02T02:32:32;2.73;;;2.53;;
18364;SDS011;9309;52.126;11.616;2023-07-02T02:35:00;2.70;;;2.50;;
18364;SDS011;9309;52.126;11.616;2023-07-02T02:37:27;2.00;;;2.00;;
18364;SDS011;9309;52.126;11.616;2023-07-02T02:39:55;2.10;;;2.00;;
18364;SDS011;9309;52.126;11.616;2023-07-02T02:42:24;2.43;;;2.33;;
18364;SDS011;9309;52.126;11.616;2023-07-02T02:44:51;2.53;;;2.43;;
18364;SDS011;9309;52.126;11.616;2023-07-02T02:47:20;2.30;;;1.93;;
18364;SDS011;9309;52.126;11.616;2023-07-02T02:49:46;2.10;;;2.00;;
18364;SDS011;9309;52.126;11.616;2023-07-02T02:52:13;3.90;;;2.70;;
18364;SDS011;9309;52.126;11.616;2023-07-02T02:54:40;2.50;;;2.40;;
18364;SDS011;9309;52.126;11.616;2023-07-02T02:57:07;2.83;;;2.63;;
18364;SDS011;9309;52.126;11.616;2023-07-02T02:59:34;2.40;;;2.30;;
18364;SDS011;9309;52.126;11.616;2023-07-02T03:02:01;2.27;;;2.17;;
18364;SDS011;9309;52.126;11.616;2023-07-02T03:04:29;2.43;;;2.33;;
18364;SDS011;9309;52.126;11.616;2023-07-02T03:06:56;4.20;;;2.10;;
18364;SDS011;9309;52.126;11.616;2023-07-02T03:09:22;1.73;;;1.73;;
18364;SDS011;9309;52.126;11.616;2023-07-02T03:11:49;2.83;;;2.27;;
18364;SDS011;9309;52.126;11.616;2023-07-02T03:14:21;2.07;;;1.97;;
18364;SDS011;9309;52.126;11.616;2023-07-02T03:16:48;4.17;;;2.63;;
18364;SDS011;9309;52.126;11.616;2023-07-02T03:19:15;2.73;;;1.90;;
18364;SDS011;9309;52.126;11.616;2023-07-02T03:21:43;2.53;;;2.20;;
18364;SDS011;9309;52.126;11.616;2023-07-02T03:24:10;2.70;;;2.50;;
18364;SDS011;9309;52.126;11.616;2023-07-02T03:26:38;1.83;;;1.80;;
18364;SDS011;9309;52.126;11.616;2023-07-02T03:29:05;1.70;;;1.70;;
18364;SDS011;9309;52.126;11.616;2023-07-02T03:31:32;2.17;;;1.97;;
18364;SDS011;9309;52.126;11.616;2023-07-02T03:34:01;2.50;;;2.20;;
18364;SDS011;9309;52.126;11.616;2023-07-02T03:36:29;1.80;;;1.80;;
18364;SDS011;9309;52.126;11.616;2023-07-02T03:38:57;1.80;;;1.80;;
18364;SDS011;9309;52.126;11.616;2023-07-02T03:41:24;1.70;;;1.60;;
18364;SDS011;9309;52.126;11.616;2023-07-02T03:43:51;1.53;;;1.53;;
18364;SDS011;9309;52.126;11.616;2023-07-02T03:46:17;1.90;;;1.80;;
18364;SDS011;9309;52.126;11.616;2023-07-02T03:48:44;3.87;;;1.90;;
18364;SDS011;9309;52.126;11.616;2023-07-02T03:51:11;2.13;;;2.03;;
18364;SDS011;9309;52.126;11.616;2023-07-02T03:53:39;4.07;;;1.93;;
18364;SDS011;9309;52.126;11.616;2023-07-02T03:56:07;1.83;;;1.80;;
18364;SDS011;9309;52.126;11.616;2023-07-02T03:58:34;2.97;;;1.90;;
18364;SDS011;9309;52.126;11.616;2023-07-02T04:01:01;2.10;;;2.00;;
18364;SDS011;9309;52.126;11.616;2023-07-02T04:03:27;2.60;;;2.50;;
18364;SDS011;9309;52.126;11.616;2023-07-02T04:05:54;1.77;;;1.77;;
18364;SDS011;9309;52.126;11.616;2023-07-02T04:08:21;1.83;;;1.83;;
18364;SDS011;9309;52.126;11.616;2023-07-02T04:10:50;2.07;;;2.07;;
18364;SDS011;9309;52.126;11.616;2023-07-02T04:13:18;3.97;;;2.20;;
18364;SDS011;9309;52.126;11.616;2023-07-02T04:15:44;1.80;;;1.80;;
18364;SDS011;9309;52.126;11.616;2023-07-02T04:18:11;1.93;;;1.83;;
18364;SDS011;9309;52.126;11.616;2023-07-02T04:20:38;1.90;;;1.80;;
18364;SDS011;9309;52.126;11.616;2023-07-02T04:23:05;1.83;;;1.83;;
18364;SDS011;9309;52.126;11.616;2023-07-02T04:25:33;3.07;;;2.10;;
18364;SDS011;9309;52.126;11.616;2023-07-02T04:28:00;1.67;;;1.67;;
18364;SDS011;9309;52.126;11.616;2023-07-02T04:30:28;3.67;;;1.93;;
18364;SDS011;9309;52.126;11.616;2023-07-02T04:32:54;1.60;;;1.60;;
18364;SDS011;9309;52.126;11.616;2023-07-02T04:35:21;1.77;;;1.67;;
18364;SDS011;9309;52.126;11.616;2023-07-02T04:37:48;2.13;;;2.03;;
18364;SDS011;9309;52.126;11.616;2023-07-02T04:40:15;1.77;;;1.77;;
18364;SDS011;9309;52.126;11.616;2023-07-02T04:42:42;2.23;;;2.13;;
18364;SDS011;9309;52.126;11.616;2023-07-02T04:45:12;2.53;;;2.37;;
18364;SDS011;9309;52.126;11.616;2023-07-02T04:47:41;3.10;;;2.30;;
18364;SDS011;9309;52.126;11.616;2023-07-02T04:50:09;2.17;;;2.07;;
18364;SDS011;9309;52.126;11.616;2023-07-02T04:52:36;2.07;;;1.90;;
18364;SDS011;9309;52.126;11.616;2023-07-02T04:55:03;2.20;;;2.10;;
18364;SDS011;9309;52.126;11.616;2023-07-02T04:57:31;2.23;;;2.13;;
18364;SDS011;9309;52.126;11.616;2023-07-02T04:59:58;1.80;;;1.80;;
18364;SDS011;9309;52.126;11.616;2023-07-02T05:02:25;2.13;;;2.03;;
18364;SDS011;9309;52.126;11.616;2023-07-02T05:04:53;1.80;;;1.80;;
18364;SDS011;9309;52.126;11.616;2023-07-02T05:07:19;1.90;;;1.80;;
18364;SDS011;9309;52.126;11.616;2023-07-02T05:09:46;2.53;;;2.30;;
18364;SDS011;9309;52.126;11.616;2023-07-02T05:12:14;2.00;;;1.90;;
18364;SDS011;9309;52.126;11.616;2023-07-02T05:14:41;2.50;;;2.20;;
18364;SDS011;9309;52.126;11.616;2023-07-02T05:17:08;2.33;;;2.23;;
18364;SDS011;9309;52.126;11.616;2023-07-02T05:19:35;2.30;;;2.20;;
18364;SDS011;9309;52.126;11.616;2023-07-02T05:22:03;1.87;;;1.77;;
18364;SDS011;9309;52.126;11.616;2023-07-02T05:24:29;2.07;;;2.00;;
18364;SDS011;9309;52.126;11.616;2023-07-02T05:26:56;2.13;;;2.03;;
18364;SDS011;9309;52.126;11.616;2023-07-02T05:29:23;1.80;;;1.80;;
18364;SDS011;9309;52.126;11.616;2023-07-02T05:31:50;2.00;;;2.00;;
18364;SDS011;9309;52.126;11.616;2023-07-02T05:34:16;2.33;;;2.13;;
18364;SDS011;9309;52.126;11.616;2023-07-02T05:36:43;2.07;;;2.00;;
18364;SDS011;9309;52.126;11.616;2023-07-02T05:39:12;2.27;;;2.07;;
18364;SDS011;9309;52.126;11.616;2023-07-02T05:41:39;2.20;;;2.10;;
18364;SDS011;9309;52.126;11.616;2023-07-02T05:44:05;2.17;;;2.07;;
18364;SDS011;9309;52.126;11.616;2023-07-02T05:46:32;8.00;;;2.10;;
18364;SDS011;9309;52.126;11.616;2023-07-02T05:48:59;1.83;;;1.73;;
18364;SDS011;9309;52.126;11.616;2023-07-02T05:51:26;2.40;;;2.30;;
18364;SDS011;9309;52.126;11.616;2023-07-02T05:53:52;1.87;;;1.87;;
18364;SDS011;9309;52.126;11.616;2023-07-02T05:56:20;2.63;;;2.43;;
18364;SDS011;9309;52.126;11.616;2023-07-02T05:58:48;4.00;;;2.83;;
18364;SDS011;9309;52.126;11.616;2023-07-02T06:01:15;5.53;;;2.30;;
18364;SDS011;9309;52.126;11.616;2023-07-02T06:03:42;2.30;;;2.10;;
18364;SDS011;9309;52.126;11.616;2023-07-02T06:06:10;2.13;;;2.03;;
18364;SDS011;9309;52.126;11.616;2023-07-02T06:08:37;2.40;;;2.30;;
18364;SDS011;9309;52.126;11.616;2023-07-02T06:11:04;2.60;;;2.43;;
18364;SDS011;9309;52.126;11.616;2023-07-02T06:13:32;2.17;;;2.00;;
18364;SDS011;9309;52.126;11.616;2023-07-02T06:15:58;2.30;;;2.20;;
18364;SDS011;9309;52.126;11.616;2023-07-02T06:18:25;2.70;;;2.50;;
18364;SDS011;9309;52.126;11.616;2023-07-02T06:20:52;2.63;;;2.43;;
18364;SDS011;9309;52.126;11.616;2023-07-02T06:23:19;2.73;;;2.60;;
18364;SDS011;9309;52.126;11.616;2023-07-02T06:25:46;2.57;;;2.47;;
18364;SDS011;9309;52.126;11.616;2023-07-02T06:28:13;3.10;;;2.73;;
18364;SDS011;9309;52.126;11.616;2023-07-02T06:30:41;2.63;;;2.43;;
18364;SDS011;9309;52.126;11.616;2023-07-02T06:33:07;3.00;;;2.80;;
18364;SDS011;9309;52.126;11.616;2023-07-02T06:35:34;2.50;;;2.30;;
18364;SDS011;9309;52.126;11.616;2023-07-02T06:38:01;2.47;;;2.30;;
18364;SDS011;9309;52.126;11.616;2023-07-02T06:40:28;2.63;;;2.43;;
18364;SDS011;9309;52.126;11.616;2023-07-02T06:42:54;3.20;;;3.10;;
18364;SDS011;9309;52.126;11.616;2023-07-02T06:45:21;4.77;;;2.80;;
18364;SDS011;9309;52.126;11.616;2023-07-02T06:47:49;2.70;;;2.60;;
18364;SDS011;9309;52.126;11.616;2023-07-02T06:50:16;3.43;;;3.13;;
18364;SDS011;9309;52.126;11.616;2023-07-02T06:52:43;2.90;;;2.80;;
18364;SDS011;9309;52.126;11.616;2023-07-02T06:55:10;2.67;;;2.47;;
18364;SDS011;9309;52.126;11.616;2023-07-02T06:57:41;3.10;;;2.90;;
18364;SDS011;9309;52.126;11.616;2023-07-02T07:00:09;2.70;;;2.57;;
18364;SDS011;9309;52.126;11.616;2023-07-02T07:02:37;2.83;;;2.73;;
18364;SDS011;9309;52.126;11.616;2023-07-02T07:05:05;3.23;;;3.03;;
18364;SDS011;9309;52.126;11.616;2023-07-02T07:07:32;3.43;;;3.20;;
18364;SDS011;9309;52.126;11.616;2023-07-02T07:09:59;4.17;;;3.77;;
18364;SDS011;9309;52.126;11.616;2023-07-02T07:12:26;3.50;;;3.20;;
18364;SDS011;9309;52.126;11.616;2023-07-02T07:14:53;3.77;;;3.47;;
18364;SDS011;9309;52.126;11.616;2023-07-02T07:17:20;4.23;;;3.33;;
18364;SDS011;9309;52.126;11.616;2023-07-02T07:19:46;5.03;;;3.87;;
18364;SDS011;9309;52.126;11.616;2023-07-02T07:22:14;4.00;;;3.57;;
18364;SDS011;9309;52.126;11.616;2023-07-02T07:24:41;5.00;;;4.13;;
18364;SDS011;9309;52.126;11.616;2023-07-02T07:27:08;4.93;;;4.30;;
18364;SDS011;9309;52.126;11.616;2023-07-02T07:29:35;4.87;;;4.47;;
18364;SDS011;9309;52.126;11.616;2023-07-02T07:32:02;6.20;;;4.77;;
18364;SDS011;9309;52.126;11.616;2023-07-02T07:34:29;5.30;;;4.53;;
18364;SDS011;9309;52.126;11.616;2023-07-02T07:36:55;6.13;;;4.47;;
18364;SDS011;9309;52.126;11.616;2023-07-02T07:39:23;5.40;;;4.50;;
18364;SDS011;9309;52.126;11.616;2023-07-02T07:41:50;4.77;;;4.40;;
18364;SDS011;9309;52.126;11.616;2023-07-02T07:44:17;5.97;;;4.53;;
18364;SDS011;9309;52.126;11.616;2023-07-02T07:46:44;6.23;;;4.57;;
18364;SDS011;9309;52.126;11.616;2023-07-02T07:49:11;5.30;;;4.80;;
18364;SDS011;9309;52.126;11.616;2023-07-02T07:51:39;5.60;;;4.47;;
18364;SDS011;9309;52.126;11.616;2023-07-02T07:54:05;5.80;;;4.70;;
18364;SDS011;9309;52.126;11.616;2023-07-02T07:56:33;5.67;;;4.43;;
18364;SDS011;9309;52.126;11.616;2023-07-02T07:59:00;6.63;;;4.23;;
18364;SDS011;9309;52.126;11.616;2023-07-02T08:01:27;4.63;;;4.23;;
18364;SDS011;9309;52.126;11.616;2023-07-02T08:03:54;7.47;;;5.40;;
18364;SDS011;9309;52.126;11.616;2023-07-02T08:06:21;4.37;;;3.93;;
18364;SDS011;9309;52.126;11.616;2023-07-02T08:08:48;7.57;;;4.30;;
18364;SDS011;9309;52.126;11.616;2023-07-02T08:11:14;7.40;;;4.20;;
18364;SDS011;9309;52.126;11.616;2023-07-02T08:13:43;6.27;;;4.27;;
18364;SDS011;9309;52.126;11.616;2023-07-02T08:16:10;3.77;;;3.37;;
18364;SDS011;9309;52.126;11.616;2023-07-02T08:18:37;4.83;;;3.77;;
18364;SDS011;9309;52.126;11.616;2023-07-02T08:21:03;8.50;;;4.50;;
18364;SDS011;9309;52.126;11.616;2023-07-02T08:25:58;7.13;;;4.13;;
18364;SDS011;9309;52.126;11.616;2023-07-02T08:28:25;13.87;;;4.47;;
18364;SDS011;9309;52.126;11.616;2023-07-02T08:30:53;8.83;;;3.97;;
18364;SDS011;9309;52.126;11.616;2023-07-02T08:33:20;6.50;;;3.77;;
18364;SDS011;9309;52.126;11.616;2023-07-02T08:35:46;4.63;;;3.40;;
18364;SDS011;9309;52.126;11.616;2023-07-02T08:38:13;11.33;;;3.43;;
18364;SDS011;9309;52.126;11.616;2023-07-02T08:40:40;7.17;;;3.47;;
18364;SDS011;9309;52.126;11.616;2023-07-02T08:43:07;5.33;;;3.70;;
18364;SDS011;9309;52.126;11.616;2023-07-02T08:45:34;4.57;;;3.30;;
18364;SDS011;9309;52.126;11.616;2023-07-02T08:48:02;9.63;;;3.17;;
18364;SDS011;9309;52.126;11.616;2023-07-02T08:50:30;7.03;;;3.43;;
18364;SDS011;9309;52.126;11.616;2023-07-02T08:52:56;10.60;;;4.07;;
18364;SDS011;9309;52.126;11.616;2023-07-02T08:55:23;10.57;;;3.10;;
18364;SDS011;9309;52.126;11.616;2023-07-02T08:57:52;4.00;;;2.63;;
18364;SDS011;9309;52.126;11.616;2023-07-02T09:00:20;5.47;;;3.00;;
18364;SDS011;9309;52.126;11.616;2023-07-02T09:02:47;8.17;;;3.37;;
18364;SDS011;9309;52.126;11.616;2023-07-02T09:05:15;5.60;;;3.43;;
18364;SDS011;9309;52.126;11.616;2023-07-02T09:07:43;9.67;;;3.40;;
18364;SDS011;9309;52.126;11.616;2023-07-02T09:10:11;3.30;;;2.73;;
18364;SDS011;9309;52.126;11.616;2023-07-02T09:12:37;3.63;;;3.00;;
18364;SDS011;9309;52.126;11.616;2023-07-02T09:15:05;7.37;;;2.90;;
18364;SDS011;9309;52.126;11.616;2023-07-02T09:17:33;4.47;;;2.93;;
18364;SDS011;9309;52.126;11.616;2023-07-02T09:20:02;7.33;;;3.87;;
18364;SDS011;9309;52.126;11.616;2023-07-02T09:22:33;7.43;;;3.20;;
18364;SDS011;9309;52.126;11.616;2023-07-02T09:25:00;7.53;;;3.77;;
18364;SDS011;9309;52.126;11.616;2023-07-02T09:27:34;5.77;;;2.57;;
18364;SDS011;9309;52.126;11.616;2023-07-02T09:30:05;5.00;;;2.73;;
18364;SDS011;9309;52.126;11.616;2023-07-02T09:32:33;3.07;;;2.57;;
18364;SDS011;9309;52.126;11.616;2023-07-02T09:34:59;5.20;;;3.10;;
18364;SDS011;9309;52.126;11.616;2023-07-02T09:37:26;4.90;;;2.93;;
18364;SDS011;9309;52.126;11.616;2023-07-02T09:39:55;7.17;;;2.63;;
18364;SDS011;9309;52.126;11.616;2023-07-02T09:42:22;6.33;;;3.73;;
18364;SDS011;9309;52.126;11.616;2023-07-02T09:44:51;4.20;;;2.77;;
18364;SDS011;9309;52.126;11.616;2023-07-02T09:47:20;3.97;;;3.57;;
18364;SDS011;9309;52.126;11.616;2023-07-02T09:49:49;3.03;;;2.60;;
18364;SDS011;9309;52.126;11.616;2023-07-02T09:52:19;6.83;;;3.47;;
18364;SDS011;9309;52.126;11.616;2023-07-02T09:54:46;6.20;;;3.23;;
18364;SDS011;9309;52.126;11.616;2023-07-02T09:57:16;7.17;;;3.87;;
18364;SDS011;9309;52.126;11.616;2023-07-02T09:59:45;4.23;;;3.10;;
18364;SDS011;9309;52.126;11.616;2023-07-02T10:02:12;7.90;;;3.20;;
18364;SDS011;9309;52.126;11.616;2023-07-02T10:04:40;5.68;;;2.80;;
18364;SDS011;9309;52.126;11.616;2023-07-02T10:07:07;7.10;;;2.65;;
18364;SDS011;9309;52.126;11.616;2023-07-02T10:09:35;10.00;;;3.50;;
18364;SDS011;9309;52.126;11.616;2023-07-02T10:12:16;6.80;;;3.20;;
18364;SDS011;9309;52.126;11.616;2023-07-02T10:14:43;15.32;;;4.50;;
18364;SDS011;9309;52.126;11.616;2023-07-02T10:17:22;16.08;;;2.80;;
18364;SDS011;9309;52.126;11.616;2023-07-02T10:19:54;10.00;;;3.05;;
18364;SDS011;9309;52.126;11.616;2023-07-02T10:22:21;12.55;;;3.40;;
18364;SDS011;9309;52.126;11.616;2023-07-02T10:24:52;6.38;;;2.50;;
18364;SDS011;9309;52.126;11.616;2023-07-02T10:27:33;7.13;;;3.45;;
18364;SDS011;9309;52.126;11.616;2023-07-02T10:30:03;4.18;;;3.15;;
18364;SDS011;9309;52.126;11.616;2023-07-02T10:32:31;5.35;;;2.55;;
18364;SDS011;9309;52.126;11.616;2023-07-02T10:34:59;3.92;;;2.83;;
18364;SDS011;9309;52.126;11.616;2023-07-02T10:37:34;5.53;;;2.95;;
18364;SDS011;9309;52.126;11.616;2023-07-02T10:40:02;3.55;;;2.63;;
18364;SDS011;9309;52.126;11.616;2023-07-02T10:49:54;8.25;;;3.25;;
18364;SDS011;9309;52.126;11.616;2023-07-02T10:52:21;8.75;;;3.72;;
18364;SDS011;9309;52.126;11.616;2023-07-02T10:54:48;7.03;;;2.95;;
18364;SDS011;9309;52.126;11.616;2023-07-02T10:57:15;6.38;;;2.80;;
18364;SDS011;9309;52.126;11.616;2023-07-02T10:59:45;7.97;;;3.92;;
18364;SDS011;9309;52.126;11.616;2023-07-02T11:02:13;4.50;;;2.97;;
18364;SDS011;9309;52.126;11.616;2023-07-02T11:04:40;8.20;;;3.55;;
18364;SDS011;9309;52.126;11.616;2023-07-02T11:07:07;4.57;;;2.78;;
18364;SDS011;9309;52.126;11.616;2023-07-02T11:09:36;5.65;;;3.20;;
18364;SDS011;9309;52.126;11.616;2023-07-02T11:12:03;6.50;;;3.22;;
18364;SDS011;9309;52.126;11.616;2023-07-02T11:14:31;3.92;;;2.63;;
18364;SDS011;9309;52.126;11.616;2023-07-02T11:16:59;6.78;;;3.28;;
18364;SDS011;9309;52.126;11.616;2023-07-02T11:19:29;5.32;;;2.58;;
18364;SDS011;9309;52.126;11.616;2023-07-02T11:21:56;3.65;;;3.28;;
18364;SDS011;9309;52.126;11.616;2023-07-02T11:24:27;10.70;;;3.55;;
18364;SDS011;9309;52.126;11.616;2023-07-02T11:26:55;5.55;;;3.20;;
18364;SDS011;9309;52.126;11.616;2023-07-02T11:29:23;5.10;;;3.15;;
18364;SDS011;9309;52.126;11.616;2023-07-02T11:31:49;8.32;;;3.15;;
18364;SDS011;9309;52.126;11.616;2023-07-02T11:34:17;5.22;;;2.67;;
18364;SDS011;9309;52.126;11.616;2023-07-02T11:36:46;9.90;;;3.05;;
18364;SDS011;9309;52.126;11.616;2023-07-02T11:39:13;3.97;;;2.55;;
18364;SDS011;9309;52.126;11.616;2023-07-02T11:41:41;5.28;;;3.30;;
18364;SDS011;9309;52.126;11.616;2023-07-02T11:44:09;4.57;;;3.42;;
18364;SDS011;9309;52.126;11.616;2023-07-02T11:46:36;3.83;;;2.63;;
18364;SDS011;9309;52.126;11.616;2023-07-02T11:49:03;3.80;;;2.75;;
18364;SDS011;9309;52.126;11.616;2023-07-02T15:54:24;6.47;;;2.83;;
18364;SDS011;9309;52.126;11.616;2023-07-02T15:56:50;5.43;;;2.83;;
18364;SDS011;9309;52.126;11.616;2023-07-02T15:59:18;6.45;;;2.00;;
18364;SDS011;9309;52.126;11.616;2023-07-02T16:01:45;10.05;;;2.42;;
18364;SDS011;9309;52.126;11.616;2023-07-02T16:04:13;8.00;;;2.92;;
18364;SDS011;9309;52.126;11.616;2023-07-02T16:06:40;8.88;;;2.67;;
18364;SDS011;9309;52.126;11.616;2023-07-02T16:09:07;4.88;;;2.35;;
18364;SDS011;9309;52.126;11.616;2023-07-02T16:11:34;3.97;;;2.60;;
18364;SDS011;9309;52.126;11.616;2023-07-02T16:14:06;5.15;;;2.25;;
18364;SDS011;9309;52.126;11.616;2023-07-02T16:16:36;4.97;;;2.35;;
18364;SDS011;9309;52.126;11.616;2023-07-02T16:19:05;3.95;;;2.08;;
18364;SDS011;9309;52.126;11.616;2023-07-02T16:21:32;3.63;;;2.50;;
18364;SDS011;9309;52.126;11.616;2023-07-02T16:24:00;3.55;;;2.55;;
18364;SDS011;9309;52.126;11.616;2023-07-02T16:26:26;4.88;;;2.28;;
18364;SDS011;9309;52.126;11.616;2023-07-02T16:28:53;10.52;;;3.03;;
18364;SDS011;9309;52.126;11.616;2023-07-02T16:31:20;2.85;;;2.55;;
18364;SDS011;9309;52.126;11.616;2023-07-02T16:33:48;7.63;;;3.75;;
18364;SDS011;9309;52.126;11.616;2023-07-02T16:36:15;4.85;;;2.42;;
18364;SDS011;9309;52.126;11.616;2023-07-02T16:38:43;2.60;;;2.10;;
18364;SDS011;9309;52.126;11.616;2023-07-02T16:41:10;4.85;;;2.88;;
18364;SDS011;9309;52.126;11.616;2023-07-02T16:43:38;6.15;;;3.38;;
18364;SDS011;9309;52.126;11.616;2023-07-02T16:46:04;6.20;;;2.88;;
18364;SDS011;9309;52.126;11.616;2023-07-02T16:48:31;7.97;;;3.03;;
18364;SDS011;9309;52.126;11.616;2023-07-02T16:50:59;5.97;;;2.50;;
18364;SDS011;9309;52.126;11.616;2023-07-02T16:53:28;3.78;;;2.75;;
18364;SDS011;9309;52.126;11.616;2023-07-02T16:55:58;8.02;;;2.78;;
18364;SDS011;9309;52.126;11.616;2023-07-02T16:58:26;2.90;;;2.55;;
18364;SDS011;9309;52.126;11.616;2023-07-02T17:00:58;2.47;;;2.28;;
18364;SDS011;9309;52.126;11.616;2023-07-02T17:03:26;3.67;;;2.58;;
18364;SDS011;9309;52.126;11.616;2023-07-02T17:05:53;5.85;;;2.67;;
18364;SDS011;9309;52.126;11.616;2023-07-02T17:08:21;3.13;;;2.03;;
18364;SDS011;9309;52.126;11.616;2023-07-02T17:10:48;5.63;;;2.58;;
18364;SDS011;9309;52.126;11.616;2023-07-02T17:13:15;3.47;;;2.70;;
18364;SDS011;9309;52.126;11.616;2023-07-02T17:15:41;5.03;;;2.42;;
18364;SDS011;9309;52.126;11.616;2023-07-02T17:18:08;3.53;;;1.90;;
18364;SDS011;9309;52.126;11.616;2023-07-02T17:20:34;3.38;;;2.22;;
18364;SDS011;9309;52.126;11.616;2023-07-02T17:23:01;5.50;;;2.47;;
18364;SDS011;9309;52.126;11.616;2023-07-02T17:25:29;5.60;;;2.05;;
18364;SDS011;9309;52.126;11.616;2023-07-02T17:27:56;2.20;;;2.08;;
18364;SDS011;9309;52.126;11.616;2023-07-02T17:30:23;7.30;;;2.97;;
18364;SDS011;9309;52.126;11.616;2023-07-02T17:32:49;4.18;;;2.58;;
18364;SDS011;9309;52.126;11.616;2023-07-02T17:35:16;2.42;;;2.00;;
18364;SDS011;9309;52.126;11.616;2023-07-02T17:37:43;4.20;;;2.03;;
18364;SDS011;9309;52.126;11.616;2023-07-02T17:40:10;11.82;;;3.10;;
18364;SDS011;9309;52.126;11.616;2023-07-02T17:42:38;3.58;;;1.98;;
18364;SDS011;9309;52.126;11.616;2023-07-02T17:45:05;4.20;;;2.70;;
18364;SDS011;9309;52.126;11.616;2023-07-02T17:47:32;4.38;;;2.42;;
18364;SDS011;9309;52.126;11.616;2023-07-02T17:50:00;5.60;;;2.25;;
18364;SDS011;9309;52.126;11.616;2023-07-02T17:52:27;6.63;;;2.33;;
18364;SDS011;9309;52.126;11.616;2023-07-02T17:54:54;6.88;;;3.15;;
18364;SDS011;9309;52.126;11.616;2023-07-02T17:57:23;4.13;;;2.28;;
18364;SDS011;9309;52.126;11.616;2023-07-02T17:59:52;2.45;;;2.28;;
18364;SDS011;9309;52.126;11.616;2023-07-02T18:02:20;5.20;;;2.70;;
18364;SDS011;9309;52.126;11.616;2023-07-02T18:04:47;7.35;;;3.20;;
18364;SDS011;9309;52.126;11.616;2023-07-02T18:07:15;4.43;;;2.63;;
18364;SDS011;9309;52.126;11.616;2023-07-02T18:09:44;3.35;;;2.00;;
18364;SDS011;9309;52.126;11.616;2023-07-02T18:12:14;4.40;;;2.47;;
18364;SDS011;9309;52.126;11.616;2023-07-02T18:14:43;2.45;;;2.20;;
18364;SDS011;9309;52.126;11.616;2023-07-02T18:17:12;2.65;;;2.45;;
18364;SDS011;9309;52.126;11.616;2023-07-02T18:19:39;3.45;;;2.25;;
18364;SDS011;9309;52.126;11.616;2023-07-02T18:22:06;2.03;;;1.60;;
18364;SDS011;9309;52.126;11.616;2023-07-02T18:24:33;7.35;;;2.45;;
18364;SDS011;9309;52.126;11.616;2023-07-02T18:27:01;4.57;;;2.37;;
18364;SDS011;9309;52.126;11.616;2023-07-02T18:29:29;3.35;;;2.33;;
18364;SDS011;9309;52.126;11.616;2023-07-02T18:31:57;4.97;;;2.15;;
18364;SDS011;9309;52.126;11.616;2023-07-02T18:34:26;8.70;;;3.45;;
18364;SDS011;9309;52.126;11.616;2023-07-02T18:36:54;3.50;;;2.20;;
18364;SDS011;9309;52.126;11.616;2023-07-02T18:39:26;3.08;;;2.30;;
18364;SDS011;9309;52.126;11.616;2023-07-02T18:41:57;2.87;;;2.43;;
18364;SDS011;9309;52.126;11.616;2023-07-02T18:44:24;3.60;;;3.30;;
18364;SDS011;9309;52.126;11.616;2023-07-02T18:46:53;2.80;;;2.60;;
18364;SDS011;9309;52.126;11.616;2023-07-02T18:49:20;5.70;;;2.30;;
18364;SDS011;9309;52.126;11.616;2023-07-02T18:51:48;5.60;;;2.13;;
18364;SDS011;9309;52.126;11.616;2023-07-02T18:54:17;5.23;;;2.10;;
18364;SDS011;9309;52.126;11.616;2023-07-02T18:56:43;5.80;;;2.80;;
18364;SDS011;9309;52.126;11.616;2023-07-02T18:59:10;6.17;;;2.70;;
18364;SDS011;9309;52.126;11.616;2023-07-02T19:01:37;3.47;;;2.40;;
18364;SDS011;9309;52.126;11.616;2023-07-02T19:04:03;4.17;;;2.20;;